sensor_id;sensor_type;location;lat;lon;timestamp;P1;durP1;ratioP1;P2;durP2;ratioP2
22549;SDS011;11441;57.164;-2.120;2023-04-23T00:02:17;11.43;;;7.80;;
22549;SDS011;11441;57.164;-2.120;2023-04-23T00:04:54;14.80;;;8.13;;
22549;SDS011;11441;57.164;-2.120;2023-04-23T00:07:28;16.23;;;8.20;;
22549;SDS011;11441;57.164;-2.120;2023-04-23T00:09:57;16.30;;;8.03;;
22549;SDS011;11441;57.164;-2.120;2023-04-23T00:12:26;10.73;;;7.50;;
22549;SDS011;11441;57.164;-2.120;2023-04-23T00:14:54;11.27;;;7.63;;
22549;SDS011;11441;57.164;-2.120;2023-04-23T00:17:40;12.63;;;7.17;;
22549;SDS011;11441;57.164;-2.120;2023-04-23T00:20:24;13.90;;;8.00;;
22549;SDS011;11441;57.164;-2.120;2023-04-23T00:22:51;14.30;;;7.90;;
22549;SDS011;11441;57.164;-2.120;2023-04-23T00:25:17;16.17;;;9.50;;
22549;SDS011;11441;57.164;-2.120;2023-04-23T00:27:44;16.50;;;9.00;;
22549;SDS011;11441;57.164;-2.120;2023-04-23T00:30:11;12.53;;;8.03;;
22549;SDS011;11441;57.164;-2.120;2023-04-23T00:32:38;17.53;;;9.23;;
22549;SDS011;11441;57.164;-2.120;2023-04-23T00:35:05;14.60;;;7.50;;
22549;SDS011;11441;57.164;-2.120;2023-04-23T00:37:32;12.43;;;7.80;;
22549;SDS011;11441;57.164;-2.120;2023-04-23T00:39:59;16.43;;;8.23;;
22549;SDS011;11441;57.164;-2.120;2023-04-23T00:42:26;18.43;;;8.23;;
22549;SDS011;11441;57.164;-2.120;2023-04-23T00:44:53;12.20;;;8.67;;
22549;SDS011;11441;57.164;-2.120;2023-04-23T00:47:21;10.17;;;7.20;;
22549;SDS011;11441;57.164;-2.120;2023-04-23T00:49:49;18.23;;;8.80;;
22549;SDS011;11441;57.164;-2.120;2023-04-23T00:52:17;14.03;;;8.77;;
22549;SDS011;11441;57.164;-2.120;2023-04-23T00:54:44;14.43;;;7.83;;
22549;SDS011;11441;57.164;-2.120;2023-04-23T00:57:28;14.47;;;7.90;;
22549;SDS011;11441;57.164;-2.120;2023-04-23T00:59:55;17.97;;;9.27;;
22549;SDS011;11441;57.164;-2.120;2023-04-23T01:02:24;14.73;;;8.00;;
22549;SDS011;11441;57.164;-2.120;2023-04-23T01:04:54;13.93;;;7.60;;
22549;SDS011;11441;57.164;-2.120;2023-04-23T01:07:21;11.27;;;7.37;;
22549;SDS011;11441;57.164;-2.120;2023-04-23T01:09:49;12.43;;;7.73;;
22549;SDS011;11441;57.164;-2.120;2023-04-23T01:12:16;14.63;;;7.90;;
22549;SDS011;11441;57.164;-2.120;2023-04-23T01:14:44;19.57;;;8.30;;
22549;SDS011;11441;57.164;-2.120;2023-04-23T01:20:16;13.80;;;7.90;;
22549;SDS011;11441;57.164;-2.120;2023-04-23T01:22:43;10.33;;;6.33;;
22549;SDS011;11441;57.164;-2.120;2023-04-23T01:25:10;17.47;;;8.70;;
22549;SDS011;11441;57.164;-2.120;2023-04-23T01:27:37;11.27;;;7.17;;
22549;SDS011;11441;57.164;-2.120;2023-04-23T01:30:04;13.77;;;7.93;;
22549;SDS011;11441;57.164;-2.120;2023-04-23T01:32:32;15.93;;;8.07;;
22549;SDS011;11441;57.164;-2.120;2023-04-23T01:35:00;10.43;;;7.57;;
22549;SDS011;11441;57.164;-2.120;2023-04-23T01:37:29;13.10;;;8.43;;
22549;SDS011;11441;57.164;-2.120;2023-04-23T01:39:57;12.33;;;7.37;;
22549;SDS011;11441;57.164;-2.120;2023-04-23T01:42:43;10.40;;;6.27;;
22549;SDS011;11441;57.164;-2.120;2023-04-23T01:45:10;10.63;;;6.50;;
22549;SDS011;11441;57.164;-2.120;2023-04-23T01:47:37;10.07;;;6.87;;
22549;SDS011;11441;57.164;-2.120;2023-04-23T01:50:05;11.37;;;6.40;;
22549;SDS011;11441;57.164;-2.120;2023-04-23T01:52:33;13.50;;;5.97;;
22549;SDS011;11441;57.164;-2.120;2023-04-23T01:55:00;11.13;;;6.63;;
22549;SDS011;11441;57.164;-2.120;2023-04-23T01:57:27;12.40;;;6.97;;
22549;SDS011;11441;57.164;-2.120;2023-04-23T02:02:40;11.23;;;7.83;;
22549;SDS011;11441;57.164;-2.120;2023-04-23T02:05:13;11.17;;;6.77;;
22549;SDS011;11441;57.164;-2.120;2023-04-23T02:07:42;13.30;;;7.63;;
22549;SDS011;11441;57.164;-2.120;2023-04-23T02:10:10;10.13;;;7.23;;
22549;SDS011;11441;57.164;-2.120;2023-04-23T02:12:37;13.93;;;7.63;;
22549;SDS011;11441;57.164;-2.120;2023-04-23T02:15:05;13.07;;;7.50;;
22549;SDS011;11441;57.164;-2.120;2023-04-23T02:17:33;8.33;;;6.60;;
22549;SDS011;11441;57.164;-2.120;2023-04-23T02:20:01;14.30;;;7.73;;
22549;SDS011;11441;57.164;-2.120;2023-04-23T02:22:28;11.53;;;7.60;;
22549;SDS011;11441;57.164;-2.120;2023-04-23T02:24:55;14.80;;;7.77;;
22549;SDS011;11441;57.164;-2.120;2023-04-23T02:27:22;14.20;;;8.00;;
22549;SDS011;11441;57.164;-2.120;2023-04-23T02:29:49;15.43;;;7.07;;
22549;SDS011;11441;57.164;-2.120;2023-04-23T02:32:16;14.30;;;7.40;;
22549;SDS011;11441;57.164;-2.120;2023-04-23T02:34:43;16.57;;;7.90;;
22549;SDS011;11441;57.164;-2.120;2023-04-23T02:37:10;11.80;;;7.13;;
22549;SDS011;11441;57.164;-2.120;2023-04-23T02:39:37;12.83;;;6.80;;
22549;SDS011;11441;57.164;-2.120;2023-04-23T02:42:24;15.93;;;8.00;;
22549;SDS011;11441;57.164;-2.120;2023-04-23T02:44:51;6.90;;;4.93;;
22549;SDS011;11441;57.164;-2.120;2023-04-23T02:47:19;14.10;;;5.97;;
22549;SDS011;11441;57.164;-2.120;2023-04-23T02:49:45;16.87;;;6.67;;
22549;SDS011;11441;57.164;-2.120;2023-04-23T02:52:12;10.03;;;6.53;;
22549;SDS011;11441;57.164;-2.120;2023-04-23T02:54:39;14.50;;;6.60;;
22549;SDS011;11441;57.164;-2.120;2023-04-23T02:57:06;13.27;;;6.47;;
22549;SDS011;11441;57.164;-2.120;2023-04-23T02:59:33;16.53;;;7.10;;
22549;SDS011;11441;57.164;-2.120;2023-04-23T03:02:01;12.63;;;5.90;;
22549;SDS011;11441;57.164;-2.120;2023-04-23T03:04:28;9.57;;;5.57;;
22549;SDS011;11441;57.164;-2.120;2023-04-23T03:06:55;12.97;;;6.07;;
22549;SDS011;11441;57.164;-2.120;2023-04-23T03:09:22;10.23;;;5.70;;
22549;SDS011;11441;57.164;-2.120;2023-04-23T03:11:48;10.60;;;5.93;;
22549;SDS011;11441;57.164;-2.120;2023-04-23T03:14:16;9.47;;;5.00;;
22549;SDS011;11441;57.164;-2.120;2023-04-23T03:16:43;13.43;;;5.30;;
22549;SDS011;11441;57.164;-2.120;2023-04-23T03:19:10;10.37;;;5.90;;
22549;SDS011;11441;57.164;-2.120;2023-04-23T03:21:37;11.13;;;5.13;;
22549;SDS011;11441;57.164;-2.120;2023-04-23T03:24:06;10.70;;;5.30;;
22549;SDS011;11441;57.164;-2.120;2023-04-23T03:26:33;9.93;;;5.00;;
22549;SDS011;11441;57.164;-2.120;2023-04-23T03:29:00;13.43;;;6.03;;
22549;SDS011;11441;57.164;-2.120;2023-04-23T03:31:27;19.13;;;6.53;;
22549;SDS011;11441;57.164;-2.120;2023-04-23T03:33:54;12.47;;;6.07;;
22549;SDS011;11441;57.164;-2.120;2023-04-23T03:36:28;10.13;;;5.90;;
22549;SDS011;11441;57.164;-2.120;2023-04-23T03:38:55;15.70;;;6.60;;
22549;SDS011;11441;57.164;-2.120;2023-04-23T03:41:22;14.57;;;5.63;;
22549;SDS011;11441;57.164;-2.120;2023-04-23T03:43:49;5.87;;;4.43;;
22549;SDS011;11441;57.164;-2.120;2023-04-23T03:46:20;7.83;;;4.77;;
22549;SDS011;11441;57.164;-2.120;2023-04-23T03:48:46;11.33;;;4.60;;
22549;SDS011;11441;57.164;-2.120;2023-04-23T03:51:21;11.47;;;4.53;;
22549;SDS011;11441;57.164;-2.120;2023-04-23T03:53:48;9.23;;;5.23;;
22549;SDS011;11441;57.164;-2.120;2023-04-23T03:56:33;12.83;;;6.10;;
22549;SDS011;11441;57.164;-2.120;2023-04-23T03:59:16;9.07;;;5.57;;
22549;SDS011;11441;57.164;-2.120;2023-04-23T04:02:01;16.57;;;6.10;;
22549;SDS011;11441;57.164;-2.120;2023-04-23T04:04:31;10.23;;;5.60;;
22549;SDS011;11441;57.164;-2.120;2023-04-23T04:06:59;9.30;;;4.40;;
22549;SDS011;11441;57.164;-2.120;2023-04-23T04:09:26;7.70;;;4.50;;
22549;SDS011;11441;57.164;-2.120;2023-04-23T04:11:59;13.30;;;5.20;;
22549;SDS011;11441;57.164;-2.120;2023-04-23T04:14:26;12.03;;;5.30;;
22549;SDS011;11441;57.164;-2.120;2023-04-23T04:16:52;11.67;;;4.87;;
22549;SDS011;11441;57.164;-2.120;2023-04-23T04:19:20;14.23;;;5.43;;
22549;SDS011;11441;57.164;-2.120;2023-04-23T04:21:47;14.90;;;5.77;;
22549;SDS011;11441;57.164;-2.120;2023-04-23T04:24:32;14.53;;;5.30;;
22549;SDS011;11441;57.164;-2.120;2023-04-23T04:26:59;10.20;;;5.60;;
22549;SDS011;11441;57.164;-2.120;2023-04-23T04:29:30;11.50;;;6.33;;
22549;SDS011;11441;57.164;-2.120;2023-04-23T04:31:57;13.13;;;6.53;;
22549;SDS011;11441;57.164;-2.120;2023-04-23T04:34:25;12.73;;;5.93;;
22549;SDS011;11441;57.164;-2.120;2023-04-23T04:36:52;13.90;;;5.47;;
22549;SDS011;11441;57.164;-2.120;2023-04-23T04:39:19;16.17;;;6.50;;
22549;SDS011;11441;57.164;-2.120;2023-04-23T04:41:46;9.90;;;6.03;;
22549;SDS011;11441;57.164;-2.120;2023-04-23T04:44:13;13.33;;;5.53;;
22549;SDS011;11441;57.164;-2.120;2023-04-23T04:46:41;14.80;;;5.60;;
22549;SDS011;11441;57.164;-2.120;2023-04-23T04:49:09;16.97;;;5.77;;
22549;SDS011;11441;57.164;-2.120;2023-04-23T04:51:37;17.23;;;6.87;;
22549;SDS011;11441;57.164;-2.120;2023-04-23T04:54:05;11.67;;;6.07;;
22549;SDS011;11441;57.164;-2.120;2023-04-23T04:56:33;21.73;;;6.33;;
22549;SDS011;11441;57.164;-2.120;2023-04-23T04:59:00;13.73;;;6.67;;
22549;SDS011;11441;57.164;-2.120;2023-04-23T05:01:45;12.30;;;6.70;;
22549;SDS011;11441;57.164;-2.120;2023-04-23T05:04:13;13.60;;;5.97;;
22549;SDS011;11441;57.164;-2.120;2023-04-23T05:06:40;21.37;;;6.90;;
22549;SDS011;11441;57.164;-2.120;2023-04-23T05:09:07;15.77;;;6.53;;
22549;SDS011;11441;57.164;-2.120;2023-04-23T05:11:33;16.63;;;7.83;;
22549;SDS011;11441;57.164;-2.120;2023-04-23T05:14:01;19.27;;;6.93;;
22549;SDS011;11441;57.164;-2.120;2023-04-23T05:16:29;13.27;;;6.30;;
22549;SDS011;11441;57.164;-2.120;2023-04-23T05:18:56;12.27;;;6.07;;
22549;SDS011;11441;57.164;-2.120;2023-04-23T05:21:23;17.07;;;6.43;;
22549;SDS011;11441;57.164;-2.120;2023-04-23T05:23:55;17.57;;;6.30;;
22549;SDS011;11441;57.164;-2.120;2023-04-23T05:26:22;11.40;;;5.67;;
22549;SDS011;11441;57.164;-2.120;2023-04-23T05:28:49;18.37;;;6.20;;
22549;SDS011;11441;57.164;-2.120;2023-04-23T05:31:15;24.23;;;6.93;;
22549;SDS011;11441;57.164;-2.120;2023-04-23T05:33:42;18.63;;;5.47;;
22549;SDS011;11441;57.164;-2.120;2023-04-23T05:36:16;19.40;;;5.63;;
22549;SDS011;11441;57.164;-2.120;2023-04-23T05:38:43;15.83;;;6.93;;
22549;SDS011;11441;57.164;-2.120;2023-04-23T05:41:10;13.40;;;5.53;;
22549;SDS011;11441;57.164;-2.120;2023-04-23T05:43:37;15.73;;;4.97;;
22549;SDS011;11441;57.164;-2.120;2023-04-23T05:46:04;10.13;;;3.90;;
22549;SDS011;11441;57.164;-2.120;2023-04-23T05:48:33;15.30;;;4.73;;
22549;SDS011;11441;57.164;-2.120;2023-04-23T05:51:00;14.18;;;4.38;;
22549;SDS011;11441;57.164;-2.120;2023-04-23T05:53:27;9.57;;;4.50;;
22549;SDS011;11441;57.164;-2.120;2023-04-23T05:55:54;10.70;;;3.80;;
22549;SDS011;11441;57.164;-2.120;2023-04-23T05:58:22;14.67;;;4.73;;
22549;SDS011;11441;57.164;-2.120;2023-04-23T06:00:48;13.07;;;3.70;;
22549;SDS011;11441;57.164;-2.120;2023-04-23T06:03:15;10.00;;;4.13;;
22549;SDS011;11441;57.164;-2.120;2023-04-23T06:05:42;11.63;;;4.00;;
22549;SDS011;11441;57.164;-2.120;2023-04-23T06:08:09;15.30;;;5.47;;
22549;SDS011;11441;57.164;-2.120;2023-04-23T06:10:36;14.07;;;4.32;;
22549;SDS011;11441;57.164;-2.120;2023-04-23T06:13:03;13.67;;;4.93;;
22549;SDS011;11441;57.164;-2.120;2023-04-23T06:15:30;9.50;;;4.47;;
22549;SDS011;11441;57.164;-2.120;2023-04-23T06:17:57;7.73;;;3.13;;
22549;SDS011;11441;57.164;-2.120;2023-04-23T06:20:24;14.93;;;4.53;;
22549;SDS011;11441;57.164;-2.120;2023-04-23T06:22:51;9.90;;;4.03;;
22549;SDS011;11441;57.164;-2.120;2023-04-23T06:25:18;14.77;;;4.30;;
22549;SDS011;11441;57.164;-2.120;2023-04-23T06:27:45;14.00;;;4.73;;
22549;SDS011;11441;57.164;-2.120;2023-04-23T06:30:18;14.57;;;4.30;;
22549;SDS011;11441;57.164;-2.120;2023-04-23T06:32:45;13.33;;;5.00;;
22549;SDS011;11441;57.164;-2.120;2023-04-23T06:35:12;10.77;;;4.60;;
22549;SDS011;11441;57.164;-2.120;2023-04-23T06:37:57;13.27;;;5.17;;
22549;SDS011;11441;57.164;-2.120;2023-04-23T06:40:24;22.70;;;6.30;;
22549;SDS011;11441;57.164;-2.120;2023-04-23T06:42:50;15.93;;;5.07;;
22549;SDS011;11441;57.164;-2.120;2023-04-23T06:45:31;20.13;;;6.00;;
22549;SDS011;11441;57.164;-2.120;2023-04-23T06:47:58;19.13;;;5.83;;
22549;SDS011;11441;57.164;-2.120;2023-04-23T06:53:11;16.53;;;6.17;;
22549;SDS011;11441;57.164;-2.120;2023-04-23T06:55:38;38.63;;;7.30;;
22549;SDS011;11441;57.164;-2.120;2023-04-23T06:58:23;24.53;;;6.17;;
22549;SDS011;11441;57.164;-2.120;2023-04-23T07:00:56;25.77;;;6.50;;
22549;SDS011;11441;57.164;-2.120;2023-04-23T07:03:29;21.07;;;5.63;;
22549;SDS011;11441;57.164;-2.120;2023-04-23T07:05:59;23.30;;;6.00;;
22549;SDS011;11441;57.164;-2.120;2023-04-23T07:08:26;33.83;;;7.17;;
22549;SDS011;11441;57.164;-2.120;2023-04-23T07:10:53;39.90;;;9.63;;
22549;SDS011;11441;57.164;-2.120;2023-04-23T07:13:21;33.13;;;10.30;;
22549;SDS011;11441;57.164;-2.120;2023-04-23T07:15:47;28.13;;;8.20;;
22549;SDS011;11441;57.164;-2.120;2023-04-23T07:18:14;40.33;;;10.73;;
22549;SDS011;11441;57.164;-2.120;2023-04-23T07:20:41;43.77;;;11.37;;
22549;SDS011;11441;57.164;-2.120;2023-04-23T07:23:08;39.13;;;10.87;;
22549;SDS011;11441;57.164;-2.120;2023-04-23T07:25:36;30.80;;;8.90;;
22549;SDS011;11441;57.164;-2.120;2023-04-23T07:28:03;32.75;;;10.07;;
22549;SDS011;11441;57.164;-2.120;2023-04-23T07:30:30;47.43;;;10.43;;
22549;SDS011;11441;57.164;-2.120;2023-04-23T07:32:57;36.77;;;10.03;;
22549;SDS011;11441;57.164;-2.120;2023-04-23T07:35:24;26.47;;;9.43;;
22549;SDS011;11441;57.164;-2.120;2023-04-23T07:37:52;27.00;;;8.10;;
22549;SDS011;11441;57.164;-2.120;2023-04-23T07:40:21;35.83;;;9.32;;
22549;SDS011;11441;57.164;-2.120;2023-04-23T07:42:49;34.65;;;9.73;;
22549;SDS011;11441;57.164;-2.120;2023-04-23T07:45:16;29.77;;;10.50;;
22549;SDS011;11441;57.164;-2.120;2023-04-23T07:47:44;35.67;;;10.17;;
22549;SDS011;11441;57.164;-2.120;2023-04-23T07:50:14;39.47;;;10.77;;
22549;SDS011;11441;57.164;-2.120;2023-04-23T07:52:41;47.03;;;10.38;;
22549;SDS011;11441;57.164;-2.120;2023-04-23T07:55:08;46.10;;;12.47;;
22549;SDS011;11441;57.164;-2.120;2023-04-23T07:57:35;46.55;;;13.05;;
22549;SDS011;11441;57.164;-2.120;2023-04-23T08:00:02;55.93;;;12.27;;
22549;SDS011;11441;57.164;-2.120;2023-04-23T08:02:37;43.47;;;10.90;;
22549;SDS011;11441;57.164;-2.120;2023-04-23T08:05:04;48.40;;;12.27;;
22549;SDS011;11441;57.164;-2.120;2023-04-23T08:07:32;44.13;;;11.40;;
22549;SDS011;11441;57.164;-2.120;2023-04-23T08:09:59;48.93;;;11.97;;
22549;SDS011;11441;57.164;-2.120;2023-04-23T08:12:29;46.35;;;11.52;;
22549;SDS011;11441;57.164;-2.120;2023-04-23T08:14:56;46.13;;;11.30;;
22549;SDS011;11441;57.164;-2.120;2023-04-23T08:17:30;56.33;;;12.90;;
22549;SDS011;11441;57.164;-2.120;2023-04-23T08:19:57;59.13;;;12.57;;
22549;SDS011;11441;57.164;-2.120;2023-04-23T08:22:24;65.17;;;14.80;;
22549;SDS011;11441;57.164;-2.120;2023-04-23T08:24:51;42.35;;;11.80;;
22549;SDS011;11441;57.164;-2.120;2023-04-23T08:27:18;56.65;;;13.15;;
22549;SDS011;11441;57.164;-2.120;2023-04-23T08:29:45;57.67;;;12.32;;
22549;SDS011;11441;57.164;-2.120;2023-04-23T08:34:57;39.45;;;11.73;;
22549;SDS011;11441;57.164;-2.120;2023-04-23T08:37:24;51.47;;;12.23;;
22549;SDS011;11441;57.164;-2.120;2023-04-23T08:39:56;53.65;;;10.80;;
22549;SDS011;11441;57.164;-2.120;2023-04-23T08:42:35;43.10;;;10.40;;
22549;SDS011;11441;57.164;-2.120;2023-04-23T08:45:04;39.33;;;11.43;;
22549;SDS011;11441;57.164;-2.120;2023-04-23T08:47:31;40.70;;;11.25;;
22549;SDS011;11441;57.164;-2.120;2023-04-23T08:50:17;45.07;;;10.77;;
22549;SDS011;11441;57.164;-2.120;2023-04-23T08:52:49;37.03;;;10.48;;
22549;SDS011;11441;57.164;-2.120;2023-04-23T08:55:18;44.83;;;10.05;;
22549;SDS011;11441;57.164;-2.120;2023-04-23T08:57:46;44.90;;;9.32;;
22549;SDS011;11441;57.164;-2.120;2023-04-23T09:00:16;41.92;;;10.88;;
22549;SDS011;11441;57.164;-2.120;2023-04-23T09:02:45;44.60;;;9.88;;
22549;SDS011;11441;57.164;-2.120;2023-04-23T09:05:13;43.30;;;10.13;;
22549;SDS011;11441;57.164;-2.120;2023-04-23T09:07:41;30.40;;;8.23;;
22549;SDS011;11441;57.164;-2.120;2023-04-23T09:10:08;32.92;;;7.53;;
22549;SDS011;11441;57.164;-2.120;2023-04-23T09:12:37;23.67;;;6.45;;
22549;SDS011;11441;57.164;-2.120;2023-04-23T09:15:06;19.57;;;4.80;;
22549;SDS011;11441;57.164;-2.120;2023-04-23T09:17:41;21.00;;;6.18;;
22549;SDS011;11441;57.164;-2.120;2023-04-23T09:20:11;15.55;;;4.50;;
22549;SDS011;11441;57.164;-2.120;2023-04-23T09:25:13;20.83;;;5.83;;
22549;SDS011;11441;57.164;-2.120;2023-04-23T09:27:43;22.00;;;5.27;;
22549;SDS011;11441;57.164;-2.120;2023-04-23T09:30:29;14.17;;;4.57;;
22549;SDS011;11441;57.164;-2.120;2023-04-23T09:32:56;16.70;;;4.67;;
22549;SDS011;11441;57.164;-2.120;2023-04-23T09:35:23;15.30;;;4.23;;
22549;SDS011;11441;57.164;-2.120;2023-04-23T09:37:53;13.83;;;4.30;;
22549;SDS011;11441;57.164;-2.120;2023-04-23T09:40:21;12.95;;;4.13;;
22549;SDS011;11441;57.164;-2.120;2023-04-23T09:42:50;14.23;;;4.33;;
22549;SDS011;11441;57.164;-2.120;2023-04-23T09:45:20;11.37;;;3.67;;
22549;SDS011;11441;57.164;-2.120;2023-04-23T09:47:49;12.63;;;3.95;;
22549;SDS011;11441;57.164;-2.120;2023-04-23T09:50:18;10.57;;;3.97;;
22549;SDS011;11441;57.164;-2.120;2023-04-23T09:52:52;17.17;;;4.83;;
22549;SDS011;11441;57.164;-2.120;2023-04-23T09:55:32;14.30;;;5.27;;
22549;SDS011;11441;57.164;-2.120;2023-04-23T09:58:12;14.07;;;4.43;;
22549;SDS011;11441;57.164;-2.120;2023-04-23T10:00:41;16.37;;;5.33;;
22549;SDS011;11441;57.164;-2.120;2023-04-23T10:03:08;11.60;;;4.63;;
22549;SDS011;11441;57.164;-2.120;2023-04-23T10:05:39;13.47;;;4.77;;
22549;SDS011;11441;57.164;-2.120;2023-04-23T10:08:26;9.77;;;5.37;;
22549;SDS011;11441;57.164;-2.120;2023-04-23T10:10:53;10.77;;;4.53;;
22549;SDS011;11441;57.164;-2.120;2023-04-23T10:13:57;10.87;;;4.23;;
22549;SDS011;11441;57.164;-2.120;2023-04-23T10:16:25;13.30;;;4.87;;
22549;SDS011;11441;57.164;-2.120;2023-04-23T10:19:07;12.63;;;5.00;;
22549;SDS011;11441;57.164;-2.120;2023-04-23T10:21:40;10.13;;;4.93;;
22549;SDS011;11441;57.164;-2.120;2023-04-23T10:24:22;10.57;;;4.83;;
22549;SDS011;11441;57.164;-2.120;2023-04-23T10:26:51;14.83;;;5.97;;
22549;SDS011;11441;57.164;-2.120;2023-04-23T10:29:23;10.27;;;4.23;;
22549;SDS011;11441;57.164;-2.120;2023-04-23T10:32:00;10.23;;;3.70;;
22549;SDS011;11441;57.164;-2.120;2023-04-23T10:34:31;4.60;;;2.97;;
22549;SDS011;11441;57.164;-2.120;2023-04-23T10:39:48;6.90;;;2.70;;
22549;SDS011;11441;57.164;-2.120;2023-04-23T10:42:19;6.77;;;2.63;;
22549;SDS011;11441;57.164;-2.120;2023-04-23T10:47:49;5.50;;;2.77;;
22549;SDS011;11441;57.164;-2.120;2023-04-23T10:50:29;6.37;;;2.60;;
22549;SDS011;11441;57.164;-2.120;2023-04-23T10:53:01;9.20;;;3.87;;
22549;SDS011;11441;57.164;-2.120;2023-04-23T10:55:29;10.17;;;3.13;;
22549;SDS011;11441;57.164;-2.120;2023-04-23T11:00:41;10.47;;;3.13;;
22549;SDS011;11441;57.164;-2.120;2023-04-23T11:06:12;6.77;;;3.77;;
22549;SDS011;11441;57.164;-2.120;2023-04-23T11:08:52;7.10;;;2.83;;
22549;SDS011;11441;57.164;-2.120;2023-04-23T11:11:38;5.95;;;2.47;;
22549;SDS011;11441;57.164;-2.120;2023-04-23T11:14:10;8.60;;;3.57;;
22549;SDS011;11441;57.164;-2.120;2023-04-23T11:16:39;9.88;;;3.05;;
22549;SDS011;11441;57.164;-2.120;2023-04-23T11:19:07;7.90;;;3.17;;
22549;SDS011;11441;57.164;-2.120;2023-04-23T11:21:57;13.17;;;3.47;;
22549;SDS011;11441;57.164;-2.120;2023-04-23T11:26:59;14.37;;;4.53;;
22549;SDS011;11441;57.164;-2.120;2023-04-23T11:29:27;10.17;;;3.20;;
22549;SDS011;11441;57.164;-2.120;2023-04-23T11:31:54;12.20;;;3.70;;
22549;SDS011;11441;57.164;-2.120;2023-04-23T11:34:24;15.25;;;4.88;;
22549;SDS011;11441;57.164;-2.120;2023-04-23T11:36:52;20.67;;;4.70;;
22549;SDS011;11441;57.164;-2.120;2023-04-23T11:39:20;20.87;;;5.40;;
22549;SDS011;11441;57.164;-2.120;2023-04-23T11:41:49;18.13;;;5.60;;
22549;SDS011;11441;57.164;-2.120;2023-04-23T11:44:19;14.90;;;4.63;;
22549;SDS011;11441;57.164;-2.120;2023-04-23T11:46:47;18.60;;;4.73;;
22549;SDS011;11441;57.164;-2.120;2023-04-23T11:49:51;16.97;;;4.43;;
22549;SDS011;11441;57.164;-2.120;2023-04-23T11:52:18;18.97;;;4.77;;
22549;SDS011;11441;57.164;-2.120;2023-04-23T11:54:45;17.03;;;4.80;;
22549;SDS011;11441;57.164;-2.120;2023-04-23T11:57:12;15.03;;;4.30;;
22549;SDS011;11441;57.164;-2.120;2023-04-23T11:59:39;20.03;;;4.90;;
22549;SDS011;11441;57.164;-2.120;2023-04-23T12:02:07;19.77;;;4.82;;
22549;SDS011;11441;57.164;-2.120;2023-04-23T12:04:34;18.98;;;5.15;;
22549;SDS011;11441;57.164;-2.120;2023-04-23T12:09:57;17.08;;;6.35;;
22549;SDS011;11441;57.164;-2.120;2023-04-23T12:12:32;20.10;;;5.63;;
22549;SDS011;11441;57.164;-2.120;2023-04-23T12:15:04;17.67;;;5.10;;
22549;SDS011;11441;57.164;-2.120;2023-04-23T12:17:50;16.48;;;5.25;;
22549;SDS011;11441;57.164;-2.120;2023-04-23T12:20:33;19.33;;;5.40;;
22549;SDS011;11441;57.164;-2.120;2023-04-23T12:23:04;13.70;;;4.73;;
22549;SDS011;11441;57.164;-2.120;2023-04-23T12:25:34;13.65;;;4.13;;
22549;SDS011;11441;57.164;-2.120;2023-04-23T12:28:02;23.98;;;5.30;;
22549;SDS011;11441;57.164;-2.120;2023-04-23T12:30:31;14.73;;;5.18;;
22549;SDS011;11441;57.164;-2.120;2023-04-23T12:33:00;13.43;;;4.57;;
22549;SDS011;11441;57.164;-2.120;2023-04-23T12:35:48;18.58;;;3.90;;
22549;SDS011;11441;57.164;-2.120;2023-04-23T12:40:58;20.67;;;4.20;;
22549;SDS011;11441;57.164;-2.120;2023-04-23T12:43:27;18.67;;;4.35;;
22549;SDS011;11441;57.164;-2.120;2023-04-23T12:45:54;13.30;;;4.53;;
22549;SDS011;11441;57.164;-2.120;2023-04-23T12:48:21;17.50;;;4.75;;
22549;SDS011;11441;57.164;-2.120;2023-04-23T12:50:48;18.35;;;4.70;;
22549;SDS011;11441;57.164;-2.120;2023-04-23T12:53:15;17.38;;;4.88;;
22549;SDS011;11441;57.164;-2.120;2023-04-23T12:55:42;22.17;;;4.65;;
22549;SDS011;11441;57.164;-2.120;2023-04-23T12:58:11;16.67;;;4.03;;
22549;SDS011;11441;57.164;-2.120;2023-04-23T13:00:38;19.95;;;4.60;;
22549;SDS011;11441;57.164;-2.120;2023-04-23T13:03:04;17.63;;;3.95;;
22549;SDS011;11441;57.164;-2.120;2023-04-23T13:05:31;14.65;;;3.35;;
22549;SDS011;11441;57.164;-2.120;2023-04-23T13:07:58;19.30;;;5.10;;
22549;SDS011;11441;57.164;-2.120;2023-04-23T13:10:25;18.95;;;5.57;;
22549;SDS011;11441;57.164;-2.120;2023-04-23T13:12:52;17.75;;;4.07;;
22549;SDS011;11441;57.164;-2.120;2023-04-23T13:15:19;23.20;;;5.15;;
22549;SDS011;11441;57.164;-2.120;2023-04-23T13:17:46;20.23;;;4.70;;
22549;SDS011;11441;57.164;-2.120;2023-04-23T13:20:12;24.75;;;4.90;;
22549;SDS011;11441;57.164;-2.120;2023-04-23T13:22:39;15.00;;;3.78;;
22549;SDS011;11441;57.164;-2.120;2023-04-23T13:25:24;17.50;;;5.75;;
22549;SDS011;11441;57.164;-2.120;2023-04-23T13:27:51;18.02;;;5.25;;
22549;SDS011;11441;57.164;-2.120;2023-04-23T13:30:18;18.95;;;4.80;;
22549;SDS011;11441;57.164;-2.120;2023-04-23T13:32:45;20.17;;;5.78;;
22549;SDS011;11441;57.164;-2.120;2023-04-23T13:35:12;15.77;;;5.25;;
22549;SDS011;11441;57.164;-2.120;2023-04-23T13:37:41;22.15;;;5.18;;
22549;SDS011;11441;57.164;-2.120;2023-04-23T13:40:08;18.02;;;5.53;;
22549;SDS011;11441;57.164;-2.120;2023-04-23T13:42:36;15.65;;;3.90;;
22549;SDS011;11441;57.164;-2.120;2023-04-23T13:45:02;18.17;;;5.13;;
22549;SDS011;11441;57.164;-2.120;2023-04-23T13:47:31;13.30;;;4.43;;
22549;SDS011;11441;57.164;-2.120;2023-04-23T13:50:00;21.40;;;4.13;;
22549;SDS011;11441;57.164;-2.120;2023-04-23T13:52:32;14.57;;;4.03;;
22549;SDS011;11441;57.164;-2.120;2023-04-23T13:54:59;12.32;;;4.18;;
22549;SDS011;11441;57.164;-2.120;2023-04-23T13:57:28;18.20;;;4.47;;
22549;SDS011;11441;57.164;-2.120;2023-04-23T13:59:55;11.13;;;3.10;;
22549;SDS011;11441;57.164;-2.120;2023-04-23T14:02:22;24.97;;;4.40;;
22549;SDS011;11441;57.164;-2.120;2023-04-23T14:04:49;12.97;;;3.90;;
22549;SDS011;11441;57.164;-2.120;2023-04-23T14:07:16;8.20;;;2.42;;
22549;SDS011;11441;57.164;-2.120;2023-04-23T14:09:43;6.10;;;2.20;;
22549;SDS011;11441;57.164;-2.120;2023-04-23T14:12:11;8.20;;;3.05;;
22549;SDS011;11441;57.164;-2.120;2023-04-23T14:14:38;7.40;;;2.13;;
22549;SDS011;11441;57.164;-2.120;2023-04-23T14:17:05;4.93;;;2.00;;
22549;SDS011;11441;57.164;-2.120;2023-04-23T14:22:17;12.70;;;3.20;;
22549;SDS011;11441;57.164;-2.120;2023-04-23T14:24:45;13.10;;;2.63;;
22549;SDS011;11441;57.164;-2.120;2023-04-23T14:27:15;10.23;;;3.17;;
22549;SDS011;11441;57.164;-2.120;2023-04-23T14:29:45;15.33;;;3.63;;
22549;SDS011;11441;57.164;-2.120;2023-04-23T14:32:17;13.93;;;4.20;;
22549;SDS011;11441;57.164;-2.120;2023-04-23T14:34:44;8.03;;;3.53;;
22549;SDS011;11441;57.164;-2.120;2023-04-23T14:37:11;7.97;;;2.40;;
22549;SDS011;11441;57.164;-2.120;2023-04-23T14:39:38;11.38;;;3.00;;
22549;SDS011;11441;57.164;-2.120;2023-04-23T14:42:07;7.97;;;2.20;;
22549;SDS011;11441;57.164;-2.120;2023-04-23T14:44:33;7.07;;;2.40;;
22549;SDS011;11441;57.164;-2.120;2023-04-23T14:47:00;12.73;;;3.73;;
22549;SDS011;11441;57.164;-2.120;2023-04-23T14:49:27;10.43;;;2.77;;
22549;SDS011;11441;57.164;-2.120;2023-04-23T14:51:54;10.37;;;2.90;;
22549;SDS011;11441;57.164;-2.120;2023-04-23T14:54:21;8.47;;;2.57;;
22549;SDS011;11441;57.164;-2.120;2023-04-23T14:56:51;8.80;;;2.43;;
22549;SDS011;11441;57.164;-2.120;2023-04-23T14:59:18;10.67;;;2.90;;
22549;SDS011;11441;57.164;-2.120;2023-04-23T15:01:45;13.63;;;3.27;;
22549;SDS011;11441;57.164;-2.120;2023-04-23T15:04:12;4.93;;;1.70;;
22549;SDS011;11441;57.164;-2.120;2023-04-23T15:06:39;7.60;;;2.47;;
22549;SDS011;11441;57.164;-2.120;2023-04-23T15:09:06;7.00;;;2.63;;
22549;SDS011;11441;57.164;-2.120;2023-04-23T15:11:32;9.47;;;2.13;;